createdAt,value
2017-06-11T00:01:01.957Z,0
2017-06-11T00:02:11.908Z,0
2017-06-11T00:03:21.696Z,0
2017-06-11T00:04:31.960Z,0
2017-06-11T00:05:41.595Z,0
2017-06-11T00:06:51.546Z,0
2017-06-11T00:08:01.496Z,0
2017-06-11T00:09:11.762Z,0
2017-06-11T00:10:21.400Z,0
2017-06-11T00:11:31.350Z,0
2017-06-11T00:12:41.307Z,0
2017-06-11T00:13:51.266Z,0
2017-06-11T00:15:01.375Z,0
2017-06-11T00:16:11.329Z,0
2017-06-11T00:17:21.277Z,0
2017-06-11T00:18:31.232Z,0
2017-06-11T00:19:41.186Z,0
2017-06-11T00:20:50.835Z,0
2017-06-11T00:22:00.787Z,0
2017-06-11T00:23:10.738Z,0
2017-06-11T00:24:20.693Z,0
2017-06-11T00:25:30.647Z,0
2017-06-11T00:26:40.598Z,0
2017-06-11T00:27:50.550Z,0
2017-06-11T00:29:00.816Z,0
2017-06-11T00:30:11.083Z,0
2017-06-11T00:31:21.037Z,0
2017-06-11T00:32:31.133Z,0
2017-06-11T00:33:41.397Z,0
2017-06-11T00:34:51.353Z,0
2017-06-11T00:36:01.624Z,0
2017-06-11T00:37:11.921Z,0
2017-06-11T00:38:22.186Z,0
2017-06-11T00:39:32.485Z,0
2017-06-11T00:40:42.121Z,0
2017-06-11T00:41:52.386Z,0
2017-06-11T00:43:02.340Z,0
2017-06-11T00:44:12.291Z,0
2017-06-11T00:45:22.244Z,0
2017-06-11T00:46:32.509Z,0
2017-06-11T00:47:42.470Z,0
2017-06-11T00:48:52.742Z,0
2017-06-11T00:50:03.155Z,0
2017-06-11T00:51:13.425Z,0
2017-06-11T00:52:23.690Z,0
2017-06-11T00:53:33.957Z,0
2017-06-11T00:54:43.586Z,0
2017-06-11T00:55:53.851Z,0
2017-06-11T00:57:03.799Z,0
2017-06-11T00:58:14.062Z,0
2017-06-11T00:59:24.323Z,0
2017-06-11T01:00:34.583Z,0
2017-06-11T01:01:44.527Z,0
2017-06-11T01:02:54.482Z,0
2017-06-11T01:04:04.120Z,0
2017-06-11T01:05:14.073Z,0
2017-06-11T01:06:24.036Z,0
2017-06-11T01:07:33.830Z,0
2017-06-11T01:08:44.099Z,0
2017-06-11T01:09:54.045Z,0
2017-06-11T01:11:04.003Z,0
2017-06-11T01:12:13.958Z,0
2017-06-11T01:13:24.230Z,0
2017-06-11T01:14:34.176Z,0
2017-06-11T01:15:44.442Z,0
2017-06-11T01:16:54.396Z,0
2017-06-11T01:18:04.356Z,0
2017-06-11T01:19:14.311Z,0
2017-06-11T01:20:24.597Z,0
2017-06-11T01:21:34.862Z,0
2017-06-11T01:22:44.502Z,0
2017-06-11T01:23:54.458Z,0
2017-06-11T01:25:04.433Z,0
2017-06-11T01:26:14.718Z,0
2017-06-11T01:27:24.352Z,0
2017-06-11T01:28:34.627Z,0
2017-06-11T01:29:43.637Z,0
2017-06-11T01:30:53.423Z,0
2017-06-11T01:32:03.377Z,0
2017-06-11T01:33:13.332Z,0
2017-06-11T01:34:23.600Z,0
2017-06-11T01:35:33.869Z,0
2017-06-11T01:36:43.828Z,0
2017-06-11T01:37:53.779Z,0
2017-06-11T01:39:04.050Z,0
2017-06-11T01:40:13.693Z,0
2017-06-11T01:41:23.651Z,0
2017-06-11T01:42:33.609Z,0
2017-06-11T01:43:43.907Z,0
2017-06-11T01:44:54.170Z,0
2017-06-11T01:46:04.435Z,0
2017-06-11T01:47:14.709Z,0
2017-06-11T01:48:24.815Z,0
2017-06-11T01:49:35.087Z,0
2017-06-11T01:50:45.037Z,0
2017-06-11T01:51:55.297Z,0
2017-06-11T01:53:05.251Z,0
2017-06-11T01:54:15.207Z,0
2017-06-11T01:55:25.475Z,0
2017-06-11T01:56:35.740Z,0
2017-06-11T01:57:46.003Z,0
2017-06-11T01:58:56.275Z,0
2017-06-11T02:00:06.225Z,0
2017-06-11T02:01:16.178Z,0
2017-06-11T02:02:25.501Z,0
2017-06-11T02:03:35.451Z,0
2017-06-11T02:04:44.768Z,0
2017-06-11T02:05:55.198Z,0
2017-06-11T02:07:05.469Z,0
2017-06-11T02:08:15.739Z,0
2017-06-11T02:09:26.010Z,0
2017-06-11T02:10:36.279Z,0
2017-06-11T02:11:46.552Z,0
2017-06-11T02:12:56.815Z,0
2017-06-11T02:14:06.773Z,0
2017-06-11T02:15:16.727Z,0
2017-06-11T02:16:26.675Z,0
2017-06-11T02:17:36.938Z,0
2017-06-11T02:18:47.205Z,0
2017-06-11T02:19:56.842Z,0
2017-06-11T02:21:07.114Z,0
2017-06-11T02:22:16.752Z,0
2017-06-11T02:23:27.015Z,0
2017-06-11T02:24:36.975Z,0
2017-06-11T02:25:47.277Z,0
2017-06-11T02:26:56.913Z,0
2017-06-11T02:28:06.867Z,0
2017-06-11T02:29:16.502Z,0
2017-06-11T02:30:26.779Z,0
2017-06-11T02:31:37.051Z,0
2017-06-11T02:32:47.324Z,0
2017-06-11T02:33:56.966Z,0
2017-06-11T02:35:07.071Z,0
2017-06-11T02:36:17.025Z,0
2017-06-11T02:37:26.666Z,0
2017-06-11T02:38:36.933Z,0
2017-06-11T02:39:46.895Z,0
2017-06-11T02:40:56.549Z,0
2017-06-11T02:42:06.813Z,0
2017-06-11T02:43:16.450Z,0
2017-06-11T02:44:26.713Z,0
2017-06-11T02:45:36.982Z,0
2017-06-11T02:46:46.941Z,0
2017-06-11T02:47:56.585Z,0
2017-06-11T02:49:06.221Z,0
2017-06-11T02:50:16.486Z,0
2017-06-11T02:51:26.438Z,0
2017-06-11T02:52:36.536Z,0
2017-06-11T02:53:46.488Z,0
2017-06-11T02:54:56.436Z,0
2017-06-11T02:56:06.704Z,0
2017-06-11T02:57:16.969Z,0
2017-06-11T02:58:26.292Z,0
2017-06-11T02:59:35.930Z,0
2017-06-11T03:00:45.566Z,0
2017-06-11T03:01:55.519Z,0
2017-06-11T03:03:05.787Z,0
2017-06-11T03:04:15.736Z,0
2017-06-11T03:05:25.686Z,0
2017-06-11T03:06:35.638Z,0
2017-06-11T03:07:45.935Z,0
2017-06-11T03:08:55.891Z,0
2017-06-11T03:10:05.995Z,0
2017-06-11T03:11:15.945Z,0
2017-06-11T03:12:26.206Z,0
2017-06-11T03:13:36.154Z,0
2017-06-11T03:14:46.433Z,0
2017-06-11T03:15:56.380Z,0
2017-06-11T03:17:06.648Z,0
2017-06-11T03:18:16.598Z,0
2017-06-11T03:19:26.544Z,0
2017-06-11T03:20:36.178Z,0
2017-06-11T03:21:46.453Z,0
2017-06-11T03:22:56.412Z,0
2017-06-11T03:24:06.682Z,0
2017-06-11T03:25:16.323Z,0
2017-06-11T03:26:26.268Z,0
2017-06-11T03:27:36.220Z,0
2017-06-11T03:28:45.226Z,0
2017-06-11T03:29:55.180Z,0
2017-06-11T03:31:05.128Z,0
2017-06-11T03:32:15.082Z,4
2017-06-11T03:33:25.182Z,4
2017-06-11T03:34:35.455Z,4
2017-06-11T03:35:45.416Z,4
2017-06-11T03:36:55.366Z,4
2017-06-11T03:38:05.346Z,0
2017-06-11T03:39:15.292Z,0
2017-06-11T03:40:25.589Z,0
2017-06-11T03:41:35.854Z,0
2017-06-11T03:42:45.806Z,0
2017-06-11T03:43:56.066Z,0
2017-06-11T03:45:06.026Z,0
2017-06-11T03:46:16.293Z,0
2017-06-11T03:47:26.557Z,0
2017-06-11T03:48:36.822Z,0
2017-06-11T03:49:46.772Z,0
2017-06-11T03:50:56.451Z,0
2017-06-11T03:52:06.399Z,0
2017-06-11T03:53:16.039Z,4
2017-06-11T03:54:25.993Z,4
2017-06-11T03:55:35.941Z,4
2017-06-11T03:56:45.894Z,4
2017-06-11T03:57:55.850Z,0
2017-06-11T03:59:06.118Z,0
2017-06-11T04:00:16.070Z,4
2017-06-11T04:01:26.030Z,4
2017-06-11T04:02:35.847Z,4
2017-06-11T04:03:46.113Z,4
2017-06-11T04:04:56.059Z,4
2017-06-11T04:06:06.015Z,4
2017-06-11T04:07:16.289Z,4
2017-06-11T04:08:26.245Z,4
2017-06-11T04:09:35.883Z,4
2017-06-11T04:10:45.831Z,4
2017-06-11T04:11:55.467Z,0
2017-06-11T04:13:05.423Z,4
2017-06-11T04:14:15.685Z,4
2017-06-11T04:15:25.644Z,4
2017-06-11T04:16:35.610Z,0
2017-06-11T04:17:45.878Z,4
2017-06-11T04:18:55.827Z,4
2017-06-11T04:20:05.932Z,4
2017-06-11T04:21:15.884Z,4
2017-06-11T04:22:25.834Z,4
2017-06-11T04:23:36.096Z,4
2017-06-11T04:24:45.763Z,0
2017-06-11T04:25:56.029Z,0
2017-06-11T04:27:05.982Z,0
2017-06-11T04:28:16.254Z,0
2017-06-11T04:29:26.517Z,0
2017-06-11T04:30:36.471Z,0
2017-06-11T04:31:46.732Z,0
2017-06-11T04:32:56.681Z,0
2017-06-11T04:34:06.943Z,0
2017-06-11T04:35:16.907Z,4
2017-06-11T04:36:26.541Z,4
2017-06-11T04:37:36.325Z,4
2017-06-11T04:38:46.590Z,4
2017-06-11T04:39:56.551Z,4
2017-06-11T04:41:06.505Z,4
2017-06-11T04:42:16.453Z,4
2017-06-11T04:43:26.720Z,4
2017-06-11T04:44:36.669Z,4
2017-06-11T04:45:46.934Z,4
2017-06-11T04:46:57.225Z,8
2017-06-11T04:48:07.177Z,8
2017-06-11T04:49:16.816Z,4
2017-06-11T04:50:26.764Z,4
2017-06-11T04:51:36.714Z,4
2017-06-11T04:52:46.349Z,4
2017-06-11T04:53:56.634Z,4
2017-06-11T04:55:07.045Z,4
2017-06-11T04:56:17.316Z,4
2017-06-11T04:57:27.586Z,4
2017-06-11T04:58:37.852Z,4
2017-06-11T04:59:47.491Z,4
2017-06-11T05:00:57.448Z,4
2017-06-11T05:02:07.740Z,4
2017-06-11T05:03:17.998Z,4
2017-06-11T05:04:28.263Z,4
2017-06-11T05:05:38.223Z,4
2017-06-11T05:06:48.178Z,4
2017-06-11T05:07:58.441Z,4
2017-06-11T05:09:08.391Z,8
2017-06-11T05:10:18.031Z,8
2017-06-11T05:11:28.294Z,8
2017-06-11T05:12:38.392Z,8
2017-06-11T05:13:48.667Z,4
2017-06-11T05:14:58.942Z,4
2017-06-11T05:16:08.892Z,4
2017-06-11T05:17:18.531Z,4
2017-06-11T05:18:28.479Z,4
2017-06-11T05:19:38.741Z,4
2017-06-11T05:20:48.374Z,4
2017-06-11T05:21:58.334Z,4
2017-06-11T05:23:08.299Z,4
2017-06-11T05:24:18.723Z,8
2017-06-11T05:25:28.679Z,8
2017-06-11T05:26:38.944Z,8
2017-06-11T05:27:48.580Z,8
2017-06-11T05:28:58.529Z,8
2017-06-11T05:30:08.480Z,8
2017-06-11T05:31:18.750Z,8
2017-06-11T05:32:28.385Z,8
2017-06-11T05:33:38.648Z,4
2017-06-11T05:34:48.596Z,4
2017-06-11T05:35:59.022Z,4
2017-06-11T05:37:08.971Z,4
2017-06-11T05:38:18.922Z,4
2017-06-11T05:39:28.873Z,4
2017-06-11T05:40:39.130Z,4
2017-06-11T05:41:49.080Z,8
2017-06-11T05:42:59.357Z,8
2017-06-11T05:44:09.312Z,8
2017-06-11T05:45:19.260Z,8
2017-06-11T05:46:29.213Z,8
2017-06-11T05:47:39.317Z,8
2017-06-11T05:48:49.603Z,8
2017-06-11T05:49:59.878Z,8
2017-06-11T05:51:10.146Z,4
2017-06-11T05:52:20.410Z,8
2017-06-11T05:53:30.672Z,8
2017-06-11T05:54:40.629Z,8
2017-06-11T05:55:50.575Z,8
2017-06-11T05:57:00.840Z,8
2017-06-11T05:58:11.105Z,16
2017-06-11T05:59:21.053Z,24
2017-06-11T06:00:30.696Z,36
2017-06-11T06:01:40.660Z,48
2017-06-11T06:02:50.610Z,52
2017-06-11T06:04:00.251Z,60
2017-06-11T06:05:10.351Z,68
2017-06-11T06:06:20.307Z,64
2017-06-11T06:07:30.257Z,116
2017-06-11T06:08:40.219Z,116
2017-06-11T06:09:49.851Z,104
2017-06-11T06:10:59.840Z,148
2017-06-11T06:12:09.483Z,148
2017-06-11T06:13:19.744Z,160
2017-06-11T06:14:29.378Z,192
2017-06-11T06:15:39.018Z,176
2017-06-11T06:16:48.969Z,180
2017-06-11T06:17:59.236Z,184
2017-06-11T06:19:09.194Z,184
2017-06-11T06:20:18.519Z,176
2017-06-11T06:21:28.782Z,152
2017-06-11T06:22:39.199Z,148
2017-06-11T06:23:49.471Z,144
2017-06-11T06:24:59.421Z,136
2017-06-11T06:26:09.378Z,152
2017-06-11T06:27:19.647Z,160
2017-06-11T06:28:29.911Z,160
2017-06-11T06:29:39.549Z,160
2017-06-11T06:30:49.817Z,156
2017-06-11T06:31:59.140Z,156
2017-06-11T06:33:09.414Z,156
2017-06-11T06:34:19.513Z,144
2017-06-11T06:35:29.780Z,144
2017-06-11T06:36:40.049Z,144
2017-06-11T06:37:50.002Z,140
2017-06-11T06:39:00.267Z,140
2017-06-11T06:40:09.586Z,140
2017-06-11T06:41:19.534Z,136
2017-06-11T06:42:29.489Z,136
2017-06-11T06:43:39.118Z,144
2017-06-11T06:44:49.383Z,140
2017-06-11T06:45:59.333Z,140
2017-06-11T06:47:09.601Z,144
2017-06-11T06:48:19.869Z,136
2017-06-11T06:49:30.136Z,136
2017-06-11T06:50:40.087Z,136
2017-06-11T06:51:50.186Z,136
2017-06-11T06:53:00.465Z,132
2017-06-11T06:54:10.743Z,132
2017-06-11T06:55:20.701Z,128
2017-06-11T06:56:30.652Z,88
2017-06-11T06:57:40.914Z,124
2017-06-11T06:58:51.212Z,124
2017-06-11T07:00:01.482Z,124
2017-06-11T07:01:11.444Z,124
2017-06-11T07:02:21.709Z,124
2017-06-11T07:03:31.811Z,108
2017-06-11T07:04:42.082Z,108
2017-06-11T07:05:52.349Z,104
2017-06-11T07:07:02.303Z,104
2017-06-11T07:08:12.262Z,116
2017-06-11T07:09:22.679Z,124
2017-06-11T07:10:32.944Z,112
2017-06-11T07:11:42.900Z,120
2017-06-11T07:12:52.849Z,120
2017-06-11T07:14:03.117Z,100
2017-06-11T07:15:13.069Z,96
2017-06-11T07:16:23.018Z,100
2017-06-11T07:17:33.292Z,100
2017-06-11T07:18:42.933Z,100
2017-06-11T07:19:51.950Z,96
2017-06-11T07:21:02.215Z,104
2017-06-11T07:22:12.480Z,100
2017-06-11T07:23:22.430Z,96
2017-06-11T07:24:32.386Z,104
2017-06-11T07:25:42.653Z,104
2017-06-11T07:26:53.069Z,120
2017-06-11T07:28:03.018Z,68
2017-06-11T07:29:12.330Z,116
2017-06-11T07:30:21.967Z,116
2017-06-11T07:31:32.238Z,116
2017-06-11T07:32:42.191Z,116
2017-06-11T07:33:52.462Z,112
2017-06-11T07:35:02.425Z,112
2017-06-11T07:36:12.698Z,112
2017-06-11T07:37:22.646Z,112
2017-06-11T07:38:32.595Z,112
2017-06-11T07:39:42.233Z,108
2017-06-11T07:40:52.188Z,108
2017-06-11T07:42:02.141Z,100
2017-06-11T07:43:12.093Z,108
2017-06-11T07:44:22.509Z,108
2017-06-11T07:45:32.774Z,108
2017-06-11T07:46:42.412Z,104
2017-06-11T07:47:52.686Z,68
2017-06-11T07:49:02.012Z,72
2017-06-11T07:50:12.275Z,68
2017-06-11T07:51:22.543Z,68
2017-06-11T07:52:32.810Z,64
2017-06-11T07:53:42.783Z,68
2017-06-11T07:54:53.044Z,68
2017-06-11T07:56:03.308Z,68
2017-06-11T07:57:13.254Z,64
2017-06-11T07:58:22.893Z,68
2017-06-11T07:59:32.848Z,64
2017-06-11T08:00:42.800Z,68
2017-06-11T08:01:52.439Z,64
2017-06-11T08:03:01.765Z,68
2017-06-11T08:04:12.026Z,72
2017-06-11T08:05:21.978Z,68
2017-06-11T08:06:31.932Z,68
2017-06-11T08:07:42.200Z,64
2017-06-11T08:08:52.474Z,68
2017-06-11T08:10:02.745Z,64
2017-06-11T08:11:13.162Z,64
2017-06-11T08:12:22.799Z,68
2017-06-11T08:13:32.756Z,64
2017-06-11T08:14:42.395Z,64
2017-06-11T08:15:52.657Z,60
2017-06-11T08:17:02.607Z,52
2017-06-11T08:18:12.873Z,76
2017-06-11T08:19:23.146Z,80
2017-06-11T08:20:33.413Z,80
2017-06-11T08:21:43.361Z,76
2017-06-11T08:22:53.513Z,76
2017-06-11T08:24:03.163Z,76
2017-06-11T08:25:13.122Z,76
2017-06-11T08:26:23.107Z,72
2017-06-11T08:27:33.370Z,72
2017-06-11T08:28:42.374Z,64
2017-06-11T08:29:52.334Z,64
2017-06-11T08:31:02.290Z,68
2017-06-11T08:32:12.240Z,64
2017-06-11T08:33:22.195Z,64
2017-06-11T08:34:32.474Z,64
2017-06-11T08:35:42.431Z,60
2017-06-11T08:36:52.374Z,60
2017-06-11T08:38:02.643Z,40
2017-06-11T08:39:12.628Z,52
2017-06-11T08:40:23.046Z,56
2017-06-11T08:41:32.682Z,52
2017-06-11T08:42:42.632Z,48
2017-06-11T08:43:52.585Z,40
2017-06-11T08:45:02.529Z,52
2017-06-11T08:46:12.476Z,52
2017-06-11T08:47:22.736Z,40
2017-06-11T08:48:32.372Z,44
2017-06-11T08:49:42.351Z,48
2017-06-11T08:50:52.306Z,44
2017-06-11T08:52:02.580Z,48
2017-06-11T08:53:12.848Z,48
2017-06-11T08:54:22.170Z,52
2017-06-11T08:55:32.119Z,48
2017-06-11T08:56:41.760Z,52
2017-06-11T08:57:52.031Z,52
2017-06-11T08:59:01.352Z,48
2017-06-11T09:00:11.614Z,48
2017-06-11T09:01:21.878Z,44
2017-06-11T09:02:32.140Z,48
2017-06-11T09:03:42.555Z,40
2017-06-11T09:04:52.518Z,44
2017-06-11T09:06:01.838Z,44
2017-06-11T09:07:11.790Z,36
2017-06-11T09:08:22.055Z,36
2017-06-11T09:09:32.324Z,40
2017-06-11T09:10:41.956Z,36
2017-06-11T09:11:52.767Z,36
2017-06-11T09:13:02.702Z,32
2017-06-11T09:14:13.356Z,40
2017-06-11T09:15:24.464Z,36
2017-06-11T09:16:34.792Z,32
2017-06-11T09:17:45.489Z,44
2017-06-11T09:18:56.531Z,44
2017-06-11T09:20:07.509Z,44
2017-06-11T09:21:18.240Z,40
2017-06-11T09:22:28.745Z,40
2017-06-11T09:23:39.241Z,40
2017-06-11T09:24:49.384Z,44
2017-06-11T09:25:59.888Z,36
2017-06-11T09:27:10.446Z,36
2017-06-11T09:28:20.948Z,32
2017-06-11T09:29:31.802Z,32
2017-06-11T09:30:42.309Z,32
2017-06-11T09:31:52.862Z,32
2017-06-11T09:33:02.749Z,32
2017-06-11T09:34:13.370Z,32
2017-06-11T09:35:22.551Z,32
2017-06-11T09:36:32.893Z,32
2017-06-11T09:37:42.669Z,32
2017-06-11T09:38:53.135Z,32
2017-06-11T09:40:03.642Z,32
2017-06-11T09:41:13.808Z,32
2017-06-11T09:42:23.652Z,36
2017-06-11T09:43:34.100Z,36
2017-06-11T09:44:44.851Z,28
2017-06-11T09:45:55.980Z,32
2017-06-11T09:47:07.121Z,36
2017-06-11T09:48:17.513Z,36
2017-06-11T09:49:28.277Z,24
2017-06-11T09:50:39.464Z,32
2017-06-11T09:51:50.605Z,28
2017-06-11T09:53:01.375Z,32
2017-06-11T09:54:12.130Z,28
2017-06-11T09:55:22.858Z,32
2017-06-11T09:56:33.985Z,32
2017-06-11T09:57:44.693Z,32
2017-06-11T09:58:55.761Z,32
2017-06-11T10:00:06.906Z,32
2017-06-11T10:01:18.009Z,32
2017-06-11T10:02:28.679Z,32
2017-06-11T10:03:39.647Z,32
2017-06-11T10:04:49.524Z,28
2017-06-11T10:06:00.088Z,32
2017-06-11T10:07:10.630Z,28
2017-06-11T10:08:21.149Z,32
2017-06-11T10:09:31.893Z,32
2017-06-11T10:10:42.585Z,28
2017-06-11T10:11:52.741Z,28
2017-06-11T10:13:02.828Z,28
2017-06-11T10:14:13.333Z,28
2017-06-11T10:15:23.416Z,32
2017-06-11T10:16:33.596Z,28
2017-06-11T10:17:43.758Z,28
2017-06-11T10:18:54.201Z,32
2017-06-11T10:20:04.800Z,28
2017-06-11T10:21:15.930Z,28
2017-06-11T10:22:26.978Z,28
2017-06-11T10:23:38.056Z,28
2017-06-11T10:24:49.128Z,32
2017-06-11T10:26:00.241Z,28
2017-06-11T10:27:11.314Z,28
2017-06-11T10:28:21.634Z,28
2017-06-11T10:29:32.010Z,28
2017-06-11T10:30:43.056Z,28
2017-06-11T10:31:53.435Z,28
2017-06-11T10:33:04.110Z,28
2017-06-11T10:34:14.798Z,24
2017-06-11T10:35:25.865Z,28
2017-06-11T10:36:36.911Z,28
2017-06-11T10:37:47.783Z,28
2017-06-11T10:38:57.945Z,24
2017-06-11T10:40:08.821Z,28
2017-06-11T10:41:19.664Z,24
2017-06-11T10:42:30.161Z,24
2017-06-11T10:43:40.528Z,24
2017-06-11T10:44:51.109Z,24
2017-06-11T10:46:01.622Z,24
2017-06-11T10:47:12.104Z,24
2017-06-11T10:48:21.847Z,24
2017-06-11T10:49:31.618Z,24
2017-06-11T10:50:42.025Z,24
2017-06-11T10:51:52.175Z,24
2017-06-11T10:53:02.599Z,24
2017-06-11T10:54:12.706Z,24
2017-06-11T10:55:22.830Z,24
2017-06-11T10:56:33.009Z,24
2017-06-11T10:57:43.501Z,20
2017-06-11T10:58:54.021Z,20
2017-06-11T11:00:04.184Z,20
2017-06-11T11:01:14.325Z,20
2017-06-11T11:02:24.438Z,20
2017-06-11T11:03:34.930Z,20
2017-06-11T11:04:45.050Z,20
2017-06-11T11:05:55.133Z,20
2017-06-11T11:07:05.250Z,24
2017-06-11T11:08:14.734Z,20
2017-06-11T11:09:24.283Z,20
2017-06-11T11:10:34.889Z,20
2017-06-11T11:11:46.234Z,20
2017-06-11T11:12:57.394Z,20
2017-06-11T11:14:08.542Z,20
2017-06-11T11:15:18.959Z,20
2017-06-11T11:16:30.120Z,20
2017-06-11T11:17:40.954Z,24
2017-06-11T11:18:51.369Z,20
2017-06-11T11:20:02.539Z,20
2017-06-11T11:21:13.660Z,20
2017-06-11T11:22:24.384Z,20
2017-06-11T11:23:35.363Z,20
2017-06-11T11:24:46.041Z,20
2017-06-11T11:25:56.313Z,16
2017-06-11T11:27:06.567Z,16
2017-06-11T11:28:16.778Z,20
2017-06-11T11:29:27.742Z,20
2017-06-11T11:30:38.510Z,20
2017-06-11T11:31:48.620Z,20
2017-06-11T11:32:58.629Z,16
2017-06-11T11:34:08.509Z,20
2017-06-11T11:35:18.965Z,20
2017-06-11T11:36:29.087Z,20
2017-06-11T11:37:39.538Z,16
2017-06-11T11:38:49.651Z,16
2017-06-11T11:39:59.470Z,16
2017-06-11T11:41:09.824Z,16
2017-06-11T11:42:19.333Z,20
2017-06-11T11:43:29.493Z,20
2017-06-11T11:44:39.640Z,20
2017-06-11T11:45:49.792Z,20
2017-06-11T11:46:59.604Z,24
2017-06-11T11:48:09.450Z,20
2017-06-11T11:49:19.619Z,20
2017-06-11T11:50:30.121Z,20
2017-06-11T11:51:40.607Z,20
2017-06-11T11:52:50.779Z,24
2017-06-11T11:54:01.262Z,20
2017-06-11T11:55:11.755Z,24
2017-06-11T11:56:22.275Z,20
2017-06-11T11:57:32.752Z,24
2017-06-11T11:58:43.132Z,24
2017-06-11T11:59:52.638Z,20
2017-06-11T12:01:02.788Z,20
2017-06-11T12:02:13.214Z,20
2017-06-11T12:03:23.708Z,20
2017-06-11T12:04:34.205Z,24
2017-06-11T12:05:44.365Z,20
2017-06-11T12:06:54.530Z,20
2017-06-11T12:08:05.006Z,20
2017-06-11T12:09:15.170Z,20
2017-06-11T12:10:25.536Z,20
2017-06-11T12:11:36.018Z,20
2017-06-11T12:12:45.846Z,12
2017-06-11T12:13:55.929Z,12
2017-06-11T12:15:06.284Z,12
2017-06-11T12:16:16.651Z,16
2017-06-11T12:17:26.703Z,16
2017-06-11T12:18:36.810Z,12
2017-06-11T12:19:46.497Z,12
2017-06-11T12:20:56.892Z,12
2017-06-11T12:22:06.794Z,16
2017-06-11T12:23:16.795Z,16
2017-06-11T12:24:26.538Z,16
2017-06-11T12:25:35.975Z,16
2017-06-11T12:26:45.739Z,12
2017-06-11T12:27:56.057Z,16
2017-06-11T12:29:06.098Z,16
2017-06-11T12:30:16.520Z,12
2017-06-11T12:31:25.979Z,16
2017-06-11T12:32:35.459Z,12
2017-06-11T12:33:45.899Z,12
2017-06-11T12:34:55.630Z,12
2017-06-11T12:36:06.078Z,36
2017-06-11T12:37:16.241Z,36
2017-06-11T12:38:26.408Z,32
2017-06-11T12:39:36.583Z,36
2017-06-11T12:40:46.407Z,32
2017-06-11T12:41:56.543Z,32
2017-06-11T12:43:06.986Z,36
2017-06-11T12:44:17.178Z,40
2017-06-11T12:45:27.703Z,40
2017-06-11T12:46:38.209Z,40
2017-06-11T12:47:48.392Z,40
2017-06-11T12:48:58.550Z,40
2017-06-11T12:50:08.368Z,40
2017-06-11T12:51:18.513Z,40
2017-06-11T12:52:28.986Z,40
2017-06-11T12:53:39.123Z,40
2017-06-11T12:54:49.657Z,40
2017-06-11T12:55:59.931Z,40
2017-06-11T12:57:10.674Z,40
2017-06-11T12:58:21.589Z,40
2017-06-11T12:59:31.769Z,40
2017-06-11T13:00:42.744Z,44
2017-06-11T13:01:53.671Z,16
2017-06-11T13:03:04.318Z,16
2017-06-11T13:04:14.635Z,20
2017-06-11T13:05:24.834Z,16
2017-06-11T13:06:35.043Z,16
2017-06-11T13:07:45.280Z,16
2017-06-11T13:08:55.872Z,20
2017-06-11T13:10:05.776Z,16
2017-06-11T13:11:16.248Z,16
2017-06-11T13:12:26.410Z,16
2017-06-11T13:13:36.903Z,16
2017-06-11T13:14:46.743Z,20
2017-06-11T13:15:56.508Z,20
2017-06-11T13:17:06.673Z,16
2017-06-11T13:18:17.162Z,20
2017-06-11T13:19:27.580Z,20
2017-06-11T13:20:37.963Z,20
2017-06-11T13:21:47.962Z,20
2017-06-11T13:22:58.047Z,20
2017-06-11T13:24:08.427Z,20
2017-06-11T13:25:18.543Z,16
2017-06-11T13:26:29.003Z,20
2017-06-11T13:27:39.168Z,20
2017-06-11T13:28:49.327Z,20
2017-06-11T13:29:59.483Z,20
2017-06-11T13:31:09.965Z,20
2017-06-11T13:32:20.128Z,20
2017-06-11T13:33:29.968Z,20
2017-06-11T13:34:40.454Z,20
2017-06-11T13:35:50.741Z,24
2017-06-11T13:37:01.478Z,20
2017-06-11T13:38:12.659Z,20
2017-06-11T13:39:23.403Z,20
2017-06-11T13:40:34.179Z,20
2017-06-11T13:41:44.858Z,20
2017-06-11T13:42:55.968Z,20
2017-06-11T13:44:06.699Z,20
2017-06-11T13:45:17.343Z,20
2017-06-11T13:46:28.359Z,20
2017-06-11T13:47:39.298Z,20
2017-06-11T13:48:49.934Z,20
2017-06-11T13:50:00.546Z,20
2017-06-11T13:51:11.147Z,20
2017-06-11T13:52:22.096Z,20
2017-06-11T13:53:32.658Z,24
2017-06-11T13:54:42.631Z,24
2017-06-11T13:55:53.026Z,20
2017-06-11T13:57:03.444Z,20
2017-06-11T13:58:13.771Z,20
2017-06-11T13:59:24.181Z,20
2017-06-11T14:00:34.328Z,24
2017-06-11T14:01:44.502Z,20
2017-06-11T14:02:54.573Z,20
2017-06-11T14:04:05.028Z,20
2017-06-11T14:05:15.019Z,24
2017-06-11T14:06:25.120Z,24
2017-06-11T14:07:35.503Z,24
2017-06-11T14:08:45.593Z,24
2017-06-11T14:09:55.310Z,24
2017-06-11T14:11:05.336Z,24
2017-06-11T14:12:15.860Z,24
2017-06-11T14:13:25.943Z,24
2017-06-11T14:14:36.005Z,24
2017-06-11T14:15:46.431Z,24
2017-06-11T14:16:56.268Z,24
2017-06-11T14:18:06.392Z,24
2017-06-11T14:19:16.772Z,24
2017-06-11T14:20:26.555Z,28
2017-06-11T14:21:36.721Z,28
2017-06-11T14:22:46.892Z,24
2017-06-11T14:23:57.253Z,24
2017-06-11T14:25:07.277Z,28
2017-06-11T14:26:17.678Z,24
2017-06-11T14:27:28.093Z,28
2017-06-11T14:28:38.092Z,28
2017-06-11T14:29:48.169Z,24
2017-06-11T14:30:58.250Z,24
2017-06-11T14:32:08.653Z,28
2017-06-11T14:33:18.643Z,28
2017-06-11T14:34:28.707Z,28
2017-06-11T14:35:39.044Z,32
2017-06-11T14:36:49.420Z,32
2017-06-11T14:37:59.447Z,36
2017-06-11T14:39:09.478Z,32
2017-06-11T14:40:19.509Z,32
2017-06-11T14:41:29.555Z,32
2017-06-11T14:42:39.951Z,28
2017-06-11T14:43:49.980Z,28
2017-06-11T14:45:00.391Z,28
2017-06-11T14:46:10.892Z,28
2017-06-11T14:47:21.269Z,28
2017-06-11T14:48:31.333Z,24
2017-06-11T14:49:41.461Z,24
2017-06-11T14:50:51.513Z,28
2017-06-11T14:52:01.638Z,28
2017-06-11T14:53:11.667Z,28
2017-06-11T14:54:22.092Z,28
2017-06-11T14:55:32.096Z,28
2017-06-11T14:56:42.469Z,28
2017-06-11T14:57:52.944Z,28
2017-06-11T14:59:03.349Z,28
2017-06-11T15:00:13.782Z,28
2017-06-11T15:01:24.207Z,24
2017-06-11T15:02:34.616Z,28
2017-06-11T15:03:44.316Z,28
2017-06-11T15:04:54.657Z,28
2017-06-11T15:06:04.361Z,28
2017-06-11T15:07:14.752Z,28
2017-06-11T15:08:24.777Z,24
2017-06-11T15:09:35.111Z,36
2017-06-11T15:10:45.308Z,40
2017-06-11T15:11:55.659Z,44
2017-06-11T15:13:06.088Z,44
2017-06-11T15:14:16.449Z,44
2017-06-11T15:15:26.495Z,40
2017-06-11T15:16:36.581Z,44
2017-06-11T15:17:46.920Z,44
2017-06-11T15:18:56.984Z,44
2017-06-11T15:20:06.388Z,28
2017-06-11T15:21:16.738Z,40
2017-06-11T15:22:26.880Z,48
2017-06-11T15:23:36.955Z,44
2017-06-11T15:24:47.362Z,44
2017-06-11T15:25:57.064Z,44
2017-06-11T15:27:07.527Z,44
2017-06-11T15:28:17.588Z,44
2017-06-11T15:29:27.640Z,40
2017-06-11T15:30:37.423Z,44
2017-06-11T15:31:47.506Z,28
2017-06-11T15:32:57.202Z,28
2017-06-11T15:34:06.938Z,12
2017-06-11T15:35:17.049Z,8
2017-06-11T15:36:27.463Z,12
2017-06-11T15:37:37.535Z,16
2017-06-11T15:38:47.604Z,12
2017-06-11T15:39:57.856Z,12
2017-06-11T15:41:08.560Z,12
2017-06-11T15:42:19.210Z,12
2017-06-11T15:43:29.857Z,16
2017-06-11T15:44:40.393Z,16
2017-06-11T15:45:50.307Z,16
2017-06-11T15:47:00.257Z,12
2017-06-11T15:48:10.817Z,16
2017-06-11T15:49:21.382Z,12
2017-06-11T15:50:31.225Z,12
2017-06-11T15:51:41.717Z,12
2017-06-11T15:52:52.226Z,12
2017-06-11T15:54:01.960Z,12
2017-06-11T15:55:11.988Z,8
2017-06-11T15:56:22.336Z,12
2017-06-11T15:57:32.310Z,12
2017-06-11T15:58:42.262Z,20
2017-06-11T15:59:52.531Z,24
2017-06-11T16:01:01.850Z,28
2017-06-11T16:02:11.794Z,8
2017-06-11T16:03:21.736Z,12
2017-06-11T16:04:31.683Z,8
2017-06-11T16:05:41.624Z,8
2017-06-11T16:06:51.752Z,8
2017-06-11T16:08:01.709Z,12
2017-06-11T16:09:11.659Z,8
2017-06-11T16:10:21.921Z,8
2017-06-11T16:11:32.190Z,8
2017-06-11T16:12:42.457Z,8
2017-06-11T16:13:52.718Z,8
2017-06-11T16:15:02.350Z,12
2017-06-11T16:16:11.984Z,8
2017-06-11T16:17:21.934Z,8
2017-06-11T16:18:30.938Z,8
2017-06-11T16:19:41.200Z,8
2017-06-11T16:20:50.524Z,8
2017-06-11T16:22:00.474Z,8
2017-06-11T16:23:10.426Z,8
2017-06-11T16:24:20.527Z,8
2017-06-11T16:25:30.791Z,8
2017-06-11T16:26:40.742Z,8
2017-06-11T16:27:51.016Z,28
2017-06-11T16:29:00.963Z,32
2017-06-11T16:30:10.912Z,28
2017-06-11T16:31:20.549Z,28
2017-06-11T16:32:30.496Z,24
2017-06-11T16:33:40.762Z,28
2017-06-11T16:34:51.023Z,28
2017-06-11T16:36:00.649Z,28
2017-06-11T16:37:10.597Z,28
2017-06-11T16:38:20.871Z,28
2017-06-11T16:39:31.128Z,28
2017-06-11T16:40:41.076Z,28
2017-06-11T16:41:51.345Z,28
2017-06-11T16:43:01.296Z,28
2017-06-11T16:44:11.571Z,28
2017-06-11T16:45:21.524Z,28
2017-06-11T16:46:31.788Z,24
2017-06-11T16:47:41.772Z,28
2017-06-11T16:48:52.046Z,28
2017-06-11T16:50:01.686Z,28
2017-06-11T16:51:11.955Z,24